Time;durP1;ratioP1;P1;durP2;ratioP2;P2;SDS_P1;SDS_P2;PMS_P1;PMS_P2;Temp;Humidity;BMP_temperature;BMP_pressure;BME280_temperature;BME280_humidity;BME280_pressure;Samples;Min_cycle;Max_cycle;Signal;HPM_P1;HPM_P2
2022/05/10 00:02:04;;;;;;;6.35;3.50;;;25.10;99.90;;;;;;1842354;76;21635;-71
2022/05/10 00:04:35;;;;;;;6.22;4.00;;;24.90;99.90;;;;;;1827834;75;21154;-70
2022/05/10 00:07:06;;;;;;;7.92;3.77;;;25.00;99.90;;;;;;1839893;77;21930;-70
2022/05/10 00:09:37;;;;;;;5.80;3.27;;;25.10;99.90;;;;;;1835040;76;21146;-71
2022/05/10 00:12:08;;;;;;;5.45;4.00;;;25.00;99.90;;;;;;1826953;76;21087;-70
2022/05/10 00:14:39;;;;;;;5.50;4.00;;;25.00;99.90;;;;;;1808016;77;21236;-70
2022/05/10 00:17:11;;;;;;;5.42;3.75;;;25.00;99.90;;;;;;1839418;76;21238;-70
2022/05/10 00:19:41;;;;;;;5.25;3.27;;;25.10;99.90;;;;;;1819229;75;21238;-71
2022/05/10 00:22:13;;;;;;;7.55;3.27;;;25.30;99.90;;;;;;1842966;76;21226;-69
2022/05/10 00:24:44;;;;;;;4.55;3.12;;;25.40;99.90;;;;;;1840124;75;21182;-69
2022/05/10 00:27:15;;;;;;;5.78;3.98;;;25.20;99.90;;;;;;1830607;76;21090;-70
2022/05/10 00:29:49;;;;;;;5.83;3.85;;;25.30;99.90;;;;;;1836099;76;21112;-70
2022/05/10 00:32:20;;;;;;;3.95;3.15;;;25.40;99.90;;;;;;1839822;76;21197;-70
2022/05/10 00:34:50;;;;;;;5.17;3.33;;;25.50;99.90;;;;;;1831797;75;21178;-69
2022/05/10 00:37:23;;;;;;;5.03;3.15;;;25.50;99.90;;;;;;1826684;76;21184;-70
2022/05/10 00:39:57;;;;;;;4.45;3.12;;;25.50;99.90;;;;;;1813893;77;21148;-70
2022/05/10 00:42:31;;;;;;;5.40;3.47;;;25.50;99.90;;;;;;1812376;77;21195;-71
2022/05/10 00:45:04;;;;;;;6.65;4.05;;;25.70;99.90;;;;;;1815304;75;21650;-70
2022/05/10 00:47:37;;;;;;;5.00;3.40;;;25.70;99.90;;;;;;1811447;77;21533;-70
2022/05/10 00:50:10;;;;;;;6.03;4.05;;;25.70;99.90;;;;;;1811947;76;21202;-70
2022/05/10 00:52:44;;;;;;;6.35;3.70;;;25.70;99.90;;;;;;1824300;77;21749;-69
2022/05/10 00:55:17;;;;;;;7.10;3.25;;;25.70;99.90;;;;;;1816865;77;21390;-70
2022/05/10 00:57:52;;;;;;;4.22;3.12;;;25.80;99.90;;;;;;1821514;76;21236;-70
2022/05/10 01:00:25;;;;;;;4.95;3.37;;;25.60;99.90;;;;;;1816210;76;21296;-71
2022/05/10 01:02:59;;;;;;;6.78;3.77;;;25.80;99.90;;;;;;1848876;76;21139;-71
2022/05/10 01:05:36;;;;;;;6.60;3.55;;;25.80;99.90;;;;;;1785249;78;21540;-69
2022/05/10 01:08:10;;;;;;;6.15;3.95;;;25.90;99.90;;;;;;1846050;75;21640;-69
2022/05/10 01:10:43;;;;;;;7.33;3.67;;;25.90;99.90;;;;;;1840366;75;21303;-70
2022/05/10 01:13:14;;;;;;;4.72;3.65;;;25.80;99.90;;;;;;1837409;75;21123;-70
2022/05/10 01:15:48;;;;;;;5.42;3.90;;;25.90;99.90;;;;;;1843702;75;21192;-70
2022/05/10 01:18:22;;;;;;;6.62;3.85;;;26.10;99.90;;;;;;1826254;75;21781;-70
2022/05/10 01:20:55;;;;;;;4.95;3.60;;;26.10;99.90;;;;;;1833991;75;21142;-70
2022/05/10 01:23:31;;;;;;;4.70;4.05;;;26.10;99.90;;;;;;1828616;75;21180;-70
2022/05/10 01:26:07;;;;;;;4.58;3.37;;;26.00;99.90;;;;;;1788580;77;21642;-70
2022/05/10 01:28:37;;;;;;;4.55;3.60;;;26.00;99.90;;;;;;1834997;76;21556;-70
2022/05/10 01:31:10;;;;;;;7.83;4.53;;;26.10;99.90;;;;;;1809115;77;21150;-70
2022/05/10 01:33:47;;;;;;;6.40;4.33;;;26.10;99.90;;;;;;1835790;75;21158;-69
2022/05/10 01:36:20;;;;;;;5.33;4.12;;;26.20;99.90;;;;;;1837842;75;21158;-69
2022/05/10 01:38:53;;;;;;;6.12;4.35;;;26.20;99.90;;;;;;1830771;76;21659;-70
2022/05/10 01:41:27;;;;;;;9.10;4.97;;;26.40;99.90;;;;;;1814657;76;21164;-69
2022/05/10 01:44:00;;;;;;;6.95;4.87;;;26.50;99.90;;;;;;1826831;76;21150;-69
2022/05/10 01:46:32;;;;;;;10.18;4.05;;;26.50;99.90;;;;;;1835014;76;21211;-69
2022/05/10 01:49:06;;;;;;;7.58;4.42;;;26.50;99.90;;;;;;1832577;76;21200;-71
2022/05/10 01:51:39;;;;;;;8.90;4.50;;;26.60;99.90;;;;;;1816299;76;21147;-70
2022/05/10 01:54:12;;;;;;;5.72;3.95;;;26.80;99.90;;;;;;1837800;76;21193;-70
2022/05/10 01:56:44;;;;;;;6.20;3.77;;;26.90;99.90;;;;;;1831180;76;21246;-70
2022/05/10 01:59:16;;;;;;;9.10;4.20;;;27.00;99.90;;;;;;1814177;75;21142;-69
2022/05/10 02:01:47;;;;;;;7.60;3.85;;;26.70;99.90;;;;;;1804682;76;21225;-70
2022/05/10 02:04:20;;;;;;;5.92;3.52;;;27.00;99.90;;;;;;1789687;77;21254;-70
2022/05/10 02:06:53;;;;;;;7.33;3.67;;;26.90;99.90;;;;;;1830124;76;21113;-70
2022/05/10 02:09:27;;;;;;;6.60;3.62;;;27.00;99.90;;;;;;1826053;76;21233;-69
2022/05/10 02:11:58;;;;;;;3.50;2.55;;;27.10;99.90;;;;;;1806003;76;21233;-69
2022/05/10 02:14:31;;;;;;;6.47;3.35;;;27.20;99.90;;;;;;1802354;76;21266;-70
2022/05/10 02:17:04;;;;;;;7.60;2.90;;;27.20;99.90;;;;;;1825782;76;21171;-70
2022/05/10 02:19:36;;;;;;;4.50;2.60;;;27.20;99.90;;;;;;1813720;76;21172;-70
2022/05/10 02:22:10;;;;;;;4.87;2.67;;;27.20;99.90;;;;;;1829714;75;21183;-70
2022/05/10 02:24:43;;;;;;;6.22;2.42;;;27.20;99.90;;;;;;1855458;75;21254;-70
2022/05/10 02:27:16;;;;;;;4.87;2.90;;;27.30;99.90;;;;;;1856379;75;21742;-70
2022/05/10 02:29:49;;;;;;;4.20;2.60;;;27.50;99.90;;;;;;1847043;75;21233;-71
2022/05/10 02:34:57;;;;;;;5.58;2.95;;;27.30;99.90;;;;;;1808354;76;21139;-70
2022/05/10 02:37:27;;;;;;;5.00;3.35;;;27.40;99.90;;;;;;1837860;75;21198;-69
2022/05/10 02:39:58;;;;;;;6.08;2.50;;;27.60;99.90;;;;;;1777117;77;21480;-70
2022/05/10 02:42:30;;;;;;;4.58;2.15;;;27.50;99.90;;;;;;1800947;77;21191;-70
2022/05/10 02:45:03;;;;;;;3.50;2.30;;;27.50;99.90;;;;;;1825710;76;21273;-70
2022/05/10 02:47:36;;;;;;;5.28;2.80;;;27.60;99.90;;;;;;1823793;76;21269;-69
2022/05/10 02:50:12;;;;;;;3.95;2.10;;;27.60;99.90;;;;;;1828589;76;21131;-70
2022/05/10 02:52:43;;;;;;;3.83;2.27;;;27.80;99.90;;;;;;1790197;77;21211;-69
2022/05/10 02:55:16;;;;;;;3.80;2.55;;;27.80;99.90;;;;;;1790063;78;21111;-70
2022/05/10 02:57:50;;;;;;;3.95;2.62;;;27.90;99.90;;;;;;1804132;77;22357;-70
2022/05/10 03:00:23;;;;;;;5.25;2.60;;;28.00;99.90;;;;;;1796615;78;21194;-70
2022/05/10 03:02:56;;;;;;;5.67;2.72;;;28.30;99.90;;;;;;1769409;78;21690;-70
2022/05/10 03:05:27;;;;;;;5.42;2.65;;;28.10;99.90;;;;;;1837857;76;21223;-70
2022/05/10 03:07:59;;;;;;;3.85;2.62;;;28.30;99.90;;;;;;1839232;76;21282;-70
2022/05/10 03:10:32;;;;;;;4.10;3.12;;;28.30;99.90;;;;;;1844774;76;21158;-70
2022/05/10 03:13:03;;;;;;;3.95;2.70;;;28.40;99.90;;;;;;1828405;77;21743;-70
2022/05/10 03:15:36;;;;;;;5.50;3.50;;;28.40;99.90;;;;;;1814880;76;21289;-70
2022/05/10 03:18:07;;;;;;;4.42;3.30;;;28.70;99.90;;;;;;1842634;75;21177;-72
2022/05/10 03:20:38;;;;;;;6.65;3.77;;;28.80;99.90;;;;;;1830706;76;21800;-71
2022/05/10 03:23:09;;;;;;;6.87;3.42;;;28.90;99.90;;;;;;1827275;76;21710;-71
2022/05/10 03:25:40;;;;;;;6.83;3.40;;;28.90;99.90;;;;;;1791354;77;21344;-71
2022/05/10 03:28:11;;;;;;;5.83;3.52;;;29.00;99.90;;;;;;1765884;78;21759;-71
2022/05/10 03:30:43;;;;;;;6.40;3.37;;;28.90;99.90;;;;;;1781569;77;21183;-71
2022/05/10 03:33:14;;;;;;;9.23;3.90;;;29.10;99.90;;;;;;1814710;76;22292;-71
2022/05/10 03:35:45;;;;;;;4.53;2.90;;;29.10;99.90;;;;;;1828240;75;21126;-71
2022/05/10 03:38:16;;;;;;;4.97;3.52;;;29.20;99.90;;;;;;1839155;75;21104;-69
2022/05/10 03:40:49;;;;;;;5.40;3.50;;;29.40;99.90;;;;;;1834934;75;21298;-69
2022/05/10 03:43:20;;;;;;;7.87;3.25;;;29.20;99.90;;;;;;1836841;75;21301;-69
2022/05/10 03:45:51;;;;;;;4.60;3.12;;;29.30;99.90;;;;;;1828843;75;21167;-69
2022/05/10 03:48:22;;;;;;;5.03;3.50;;;29.30;99.90;;;;;;1838985;76;21292;-70
2022/05/10 03:50:53;;;;;;;5.70;3.55;;;29.20;99.90;;;;;;1844538;75;21206;-71
2022/05/10 03:53:24;;;;;;;4.12;3.60;;;29.30;99.90;;;;;;1845516;75;21195;-70
2022/05/10 03:55:55;;;;;;;5.72;3.20;;;29.20;99.90;;;;;;1811966;77;21154;-70
2022/05/10 03:58:26;;;;;;;6.90;3.30;;;29.10;99.90;;;;;;1790316;78;21271;-70
2022/05/10 04:00:57;;;;;;;6.33;3.35;;;29.10;99.90;;;;;;1824266;76;21745;-71
2022/05/10 04:03:28;;;;;;;4.85;3.47;;;29.20;99.90;;;;;;1806435;76;21216;-70
2022/05/10 04:05:59;;;;;;;8.53;3.30;;;29.30;99.90;;;;;;1799769;78;21187;-71
2022/05/10 04:08:30;;;;;;;5.47;3.35;;;29.40;99.90;;;;;;1837581;74;21182;-71
2022/05/10 04:11:03;;;;;;;4.55;3.20;;;29.40;99.90;;;;;;1847618;74;21240;-70
2022/05/10 04:13:36;;;;;;;8.73;3.37;;;29.60;99.90;;;;;;1820301;77;21209;-71
2022/05/10 04:16:08;;;;;;;4.00;3.10;;;29.50;99.90;;;;;;1816752;75;21146;-70
2022/05/10 04:18:39;;;;;;;5.72;3.22;;;29.40;99.90;;;;;;1828609;76;21162;-71
2022/05/10 04:21:10;;;;;;;4.47;3.00;;;29.50;99.90;;;;;;1837302;75;21094;-71
2022/05/10 04:23:41;;;;;;;4.47;3.35;;;29.40;99.90;;;;;;1812484;77;21174;-71
2022/05/10 04:26:14;;;;;;;6.35;2.70;;;29.40;99.90;;;;;;1798820;76;21210;-70
2022/05/10 04:28:46;;;;;;;4.25;2.90;;;29.60;99.90;;;;;;1847937;75;21100;-70
2022/05/10 04:31:17;;;;;;;5.03;3.20;;;29.80;99.90;;;;;;1792130;78;21180;-70
2022/05/10 04:33:48;;;;;;;4.95;2.72;;;30.20;99.90;;;;;;1830879;75;21215;-70
2022/05/10 04:36:22;;;;;;;4.87;2.70;;;30.50;99.90;;;;;;1856570;75;21374;-70
2022/05/10 04:38:52;;;;;;;4.17;2.92;;;30.70;99.90;;;;;;1792504;77;21128;-69
2022/05/10 04:41:26;;;;;;;4.83;3.42;;;30.60;99.90;;;;;;1779335;78;21596;-70
2022/05/10 04:44:00;;;;;;;5.58;3.05;;;30.80;99.90;;;;;;1781850;78;21250;-69
2022/05/10 04:46:39;;;;;;;5.20;2.90;;;30.80;99.90;;;;;;1784626;77;21685;-69
2022/05/10 04:49:13;;;;;;;4.58;2.90;;;30.90;99.90;;;;;;1831560;76;21211;-70
2022/05/10 04:51:44;;;;;;;5.08;2.45;;;30.70;99.90;;;;;;1813976;77;21068;-70
2022/05/10 04:54:15;;;;;;;5.22;2.60;;;30.70;99.90;;;;;;1793762;78;21179;-70
2022/05/10 04:56:45;;;;;;;4.92;2.58;;;30.80;99.90;;;;;;1825738;75;21162;-70
2022/05/10 04:59:16;;;;;;;5.70;2.77;;;31.10;99.90;;;;;;1833493;76;21163;-70
2022/05/10 05:01:47;;;;;;;4.65;2.33;;;31.30;99.90;;;;;;1841749;75;21174;-70
2022/05/10 05:04:18;;;;;;;3.80;2.27;;;31.50;99.90;;;;;;1840731;75;21190;-70
2022/05/10 05:06:51;;;;;;;4.33;2.50;;;31.40;99.90;;;;;;1841639;75;21172;-70
2022/05/10 05:09:21;;;;;;;4.03;2.37;;;31.50;99.90;;;;;;1802315;76;21115;-70
2022/05/10 05:11:52;;;;;;;4.45;2.70;;;31.60;99.90;;;;;;1828848;76;21168;-70
2022/05/10 05:14:25;;;;;;;4.20;2.40;;;31.80;99.90;;;;;;1838046;74;21169;-70
2022/05/10 05:16:56;;;;;;;4.12;2.30;;;31.70;99.90;;;;;;1810762;76;21259;-70
2022/05/10 05:19:27;;;;;;;4.65;2.30;;;31.80;99.90;;;;;;1811723;76;21176;-70
2022/05/10 05:21:58;;;;;;;3.80;2.37;;;31.60;99.90;;;;;;1767758;78;21170;-70
2022/05/10 05:24:30;;;;;;;8.13;2.80;;;31.70;99.90;;;;;;1765765;76;21184;-70
2022/05/10 05:27:03;;;;;;;5.47;3.10;;;31.80;99.90;;;;;;1776453;78;21264;-70
2022/05/10 05:29:35;;;;;;;4.97;2.90;;;31.80;99.90;;;;;;1803765;76;21168;-70
2022/05/10 05:32:09;;;;;;;3.40;2.40;;;31.80;99.90;;;;;;1788601;76;21229;-70
2022/05/10 05:34:40;;;;;;;4.10;2.60;;;31.60;99.90;;;;;;1828707;76;21246;-70
2022/05/10 05:39:44;;;;;;;4.78;2.50;;;31.40;99.90;;;;;;1838794;76;21742;-69
2022/05/10 05:42:15;;;;;;;6.28;2.55;;;31.40;99.90;;;;;;1828675;75;21179;-69
2022/05/10 05:44:46;;;;;;;4.10;2.40;;;31.50;99.90;;;;;;1835966;76;21090;-70
2022/05/10 05:47:19;;;;;;;4.85;2.98;;;31.60;99.90;;;;;;1830328;76;21238;-70
2022/05/10 05:49:49;;;;;;;3.72;2.35;;;31.30;99.90;;;;;;1818799;76;21256;-70
2022/05/10 05:52:22;;;;;;;4.62;2.52;;;31.40;99.90;;;;;;1811914;77;21279;-70
2022/05/10 05:54:54;;;;;;;5.10;2.58;;;31.30;99.90;;;;;;1841015;75;21436;-70
2022/05/10 05:57:24;;;;;;;4.65;2.85;;;31.10;99.90;;;;;;1836590;75;21099;-70
2022/05/10 05:59:58;;;;;;;6.60;3.27;;;31.10;99.90;;;;;;1840260;75;21223;-71
2022/05/10 06:02:29;;;;;;;4.37;2.87;;;31.00;99.90;;;;;;1833800;75;21229;-70
2022/05/10 06:05:01;;;;;;;4.30;2.98;;;31.10;99.90;;;;;;1791770;76;21175;-70
2022/05/10 06:07:32;;;;;;;3.58;2.90;;;31.10;99.90;;;;;;1824668;76;21164;-70
2022/05/10 06:10:04;;;;;;;4.80;2.60;;;31.30;99.90;;;;;;1832178;76;21189;-69
2022/05/10 06:12:34;;;;;;;5.62;2.60;;;31.40;99.90;;;;;;1795514;76;21662;-69
2022/05/10 06:15:08;;;;;;;4.65;2.90;;;31.40;99.90;;;;;;1832786;76;21599;-69
2022/05/10 06:17:41;;;;;;;4.12;2.70;;;31.60;99.90;;;;;;1830451;76;21615;-69
2022/05/10 06:20:14;;;;;;;4.17;2.45;;;31.40;99.90;;;;;;1834186;75;21131;-69
2022/05/10 06:22:45;;;;;;;4.35;2.95;;;31.40;99.90;;;;;;1821567;75;21233;-70
2022/05/10 06:25:19;;;;;;;3.83;2.87;;;31.60;99.90;;;;;;1826667;75;21648;-70
2022/05/10 06:27:52;;;;;;;4.72;2.60;;;31.30;99.90;;;;;;1801727;75;21646;-69
2022/05/10 06:30:24;;;;;;;5.12;2.95;;;31.30;99.90;;;;;;1840528;75;21304;-70
2022/05/10 06:32:57;;;;;;;4.62;2.98;;;31.50;99.90;;;;;;1826893;75;22435;-71
2022/05/10 06:35:29;;;;;;;4.78;2.92;;;31.30;99.90;;;;;;1832677;76;21724;-70
2022/05/10 06:40:34;;;;;;;5.35;3.75;;;31.00;99.90;;;;;;1812039;76;21200;-70
2022/05/10 06:43:05;;;;;;;7.58;4.85;;;31.00;99.90;;;;;;1842986;76;21644;-70
2022/05/10 06:45:36;;;;;;;6.42;3.27;;;30.90;99.90;;;;;;1843103;75;21317;-70
2022/05/10 06:48:08;;;;;;;5.17;3.20;;;30.70;99.90;;;;;;1833778;75;21174;-70
2022/05/10 06:50:39;;;;;;;5.85;3.27;;;30.50;99.90;;;;;;1827378;76;21645;-70
2022/05/10 06:53:12;;;;;;;5.12;2.77;;;30.50;99.90;;;;;;1794510;77;21533;-70
2022/05/10 06:55:44;;;;;;;5.75;2.40;;;30.50;99.90;;;;;;1754901;80;21161;-71
2022/05/10 06:58:14;;;;;;;5.72;3.33;;;30.40;99.90;;;;;;1787443;77;21252;-70
2022/05/10 07:00:51;;;;;;;5.50;3.05;;;30.20;99.90;;;;;;1802813;78;21233;-70
2022/05/10 07:03:26;;;;;;;6.28;3.65;;;30.00;99.90;;;;;;1755922;78;21704;-70
2022/05/10 07:05:58;;;;;;;5.00;3.57;;;29.80;99.90;;;;;;1774139;76;21173;-70
2022/05/10 07:08:33;;;;;;;5.33;2.92;;;29.80;99.90;;;;;;1780747;78;21187;-70
2022/05/10 07:11:05;;;;;;;5.47;3.08;;;29.80;99.90;;;;;;1800119;78;21250;-70
2022/05/10 07:13:36;;;;;;;6.28;3.60;;;29.80;99.90;;;;;;1845909;76;21211;-70
2022/05/10 07:16:07;;;;;;;6.37;3.15;;;29.60;99.90;;;;;;1802707;77;21228;-70
2022/05/10 07:18:39;;;;;;;4.95;3.20;;;29.60;99.90;;;;;;1815235;75;21241;-70
2022/05/10 07:21:10;;;;;;;7.55;4.30;;;29.60;99.90;;;;;;1840104;76;21194;-70
2022/05/10 07:23:41;;;;;;;5.72;3.70;;;29.70;99.90;;;;;;1800014;77;21152;-70
2022/05/10 07:26:14;;;;;;;6.25;4.05;;;29.90;99.90;;;;;;1764801;78;21183;-70
2022/05/10 07:28:45;;;;;;;8.05;4.42;;;29.80;99.90;;;;;;1824797;75;21535;-70
2022/05/10 07:31:19;;;;;;;4.08;3.30;;;30.00;99.90;;;;;;1822359;76;21283;-70
2022/05/10 07:33:50;;;;;;;7.80;3.77;;;30.00;99.90;;;;;;1822142;76;21163;-70
2022/05/10 07:36:24;;;;;;;7.10;4.50;;;29.90;99.90;;;;;;1844196;75;21191;-69
2022/05/10 07:38:53;;;;;;;8.90;4.00;;;30.00;99.90;;;;;;1825408;76;21235;-70
2022/05/10 07:41:24;;;;;;;4.95;3.62;;;30.00;99.90;;;;;;1799853;77;21610;-69
2022/05/10 07:43:56;;;;;;;7.20;3.77;;;30.10;99.90;;;;;;1815048;75;21311;-69
2022/05/10 07:46:27;;;;;;;5.97;3.98;;;30.30;99.90;;;;;;1799818;76;21120;-69
2022/05/10 07:48:58;;;;;;;5.80;4.37;;;30.30;99.90;;;;;;1830143;75;21607;-70
2022/05/10 07:51:29;;;;;;;5.70;3.83;;;30.40;99.90;;;;;;1817428;75;21175;-69
2022/05/10 07:54:00;;;;;;;5.28;3.75;;;30.40;99.90;;;;;;1843666;75;21801;-69
2022/05/10 07:56:31;;;;;;;6.28;4.20;;;30.60;99.90;;;;;;1822508;76;21233;-69
2022/05/10 07:59:03;;;;;;;5.70;3.67;;;30.70;99.90;;;;;;1845943;76;21783;-68
2022/05/10 08:01:34;;;;;;;8.75;4.35;;;30.90;99.90;;;;;;1836259;75;21098;-68
2022/05/10 08:04:06;;;;;;;6.03;3.75;;;30.70;99.90;;;;;;1799901;78;21615;-68
2022/05/10 08:06:36;;;;;;;10.70;4.83;;;30.70;99.90;;;;;;1805899;76;21816;-68
2022/05/10 08:09:07;;;;;;;8.33;4.62;;;30.80;99.90;;;;;;1849947;74;21151;-70
2022/05/10 08:11:39;;;;;;;7.60;4.53;;;30.70;99.90;;;;;;1803636;76;21587;-69
2022/05/10 08:14:10;;;;;;;6.40;4.53;;;30.80;99.90;;;;;;1832469;76;21172;-69
2022/05/10 08:17:00;;;;;;;6.35;3.90;;;30.80;99.90;;;;;;1799749;76;21148;-69
2022/05/10 08:19:32;;;;;;;5.30;3.58;;;30.70;99.90;;;;;;1813289;75;21114;-69
2022/05/10 08:22:03;;;;;;;6.35;4.65;;;30.80;99.90;;;;;;1839265;75;21383;-69
2022/05/10 08:24:34;;;;;;;8.13;4.47;;;30.70;99.90;;;;;;1834204;76;21614;-69
2022/05/10 08:27:05;;;;;;;6.33;3.92;;;30.70;99.90;;;;;;1842497;75;21163;-70
2022/05/10 08:29:37;;;;;;;9.75;6.10;;;30.90;99.90;;;;;;1818843;77;21721;-70
2022/05/10 08:32:08;;;;;;;5.05;4.30;;;30.90;99.90;;;;;;1861732;75;21661;-70
2022/05/10 08:34:39;;;;;;;8.00;4.15;;;30.80;99.90;;;;;;1836158;76;21700;-70
2022/05/10 08:37:10;;;;;;;8.00;3.90;;;30.80;99.90;;;;;;1812108;76;21328;-70
2022/05/10 08:39:41;;;;;;;5.55;4.08;;;30.90;99.90;;;;;;1818932;75;21204;-70
2022/05/10 08:42:16;;;;;;;5.90;3.90;;;30.90;99.90;;;;;;1845224;74;21966;-70
2022/05/10 08:44:58;;;;;;;5.85;3.20;;;31.00;99.90;;;;;;1828512;76;21215;-71
2022/05/10 08:47:30;;;;;;;5.17;3.67;;;31.00;99.90;;;;;;1814457;76;21724;-70
2022/05/10 08:50:03;;;;;;;5.30;3.70;;;31.10;99.90;;;;;;1849021;75;22185;-70
2022/05/10 08:52:38;;;;;;;5.28;3.62;;;31.10;99.90;;;;;;1834175;75;21252;-72
2022/05/10 08:55:10;;;;;;;8.10;3.67;;;31.00;99.90;;;;;;1837393;76;21531;-70
2022/05/10 08:57:45;;;;;;;7.58;3.77;;;31.00;99.90;;;;;;1830162;76;21200;-83
2022/05/10 09:00:20;;;;;;;4.87;3.35;;;31.00;99.90;;;;;;1818414;75;21927;-83
2022/05/10 09:02:54;;;;;;;4.30;3.60;;;31.00;99.90;;;;;;1832327;76;21124;-83
2022/05/10 09:05:26;;;;;;;3.87;2.70;;;31.20;99.90;;;;;;1839673;75;21240;-84
2022/05/10 09:07:58;;;;;;;5.92;3.08;;;31.10;99.90;;;;;;1831451;75;21178;-84
2022/05/10 09:10:31;;;;;;;3.50;2.60;;;31.00;99.90;;;;;;1825115;76;21305;-84
2022/05/10 09:13:05;;;;;;;6.33;2.98;;;31.10;99.90;;;;;;1830908;76;21123;-84
2022/05/10 09:15:38;;;;;;;4.12;2.90;;;31.10;99.90;;;;;;1830040;77;21154;-84
2022/05/10 09:18:12;;;;;;;3.85;2.55;;;31.00;99.90;;;;;;1820293;77;21181;-83
2022/05/10 09:20:48;;;;;;;4.05;2.42;;;31.20;99.90;;;;;;1838029;76;21156;-83
2022/05/10 09:23:24;;;;;;;5.80;2.95;;;31.20;99.90;;;;;;1836411;76;21970;-85
2022/05/10 09:25:57;;;;;;;5.90;2.98;;;31.00;99.90;;;;;;1841127;76;21728;-85
2022/05/10 09:28:31;;;;;;;4.80;3.50;;;31.00;99.90;;;;;;1839824;76;21191;-82
2022/05/10 09:36:10;;;;;;;5.28;3.15;;;30.90;99.90;;;;;;1837269;76;21140;-83
2022/05/10 09:38:46;;;;;;;4.50;2.67;;;31.10;99.90;;;;;;1823761;76;21623;-82
2022/05/10 09:41:20;;;;;;;4.00;2.90;;;31.00;99.90;;;;;;1809069;76;21158;-83
2022/05/10 09:43:50;;;;;;;5.58;3.67;;;30.90;99.90;;;;;;1830713;76;21156;-83
2022/05/10 09:46:25;;;;;;;9.58;4.30;;;30.90;99.90;;;;;;1834215;76;21218;-83
2022/05/10 09:48:56;;;;;;;3.58;2.55;;;31.00;99.90;;;;;;1798433;77;21749;-83
2022/05/10 09:51:29;;;;;;;4.40;2.50;;;30.80;99.90;;;;;;1780623;78;21186;-83
2022/05/10 09:54:04;;;;;;;4.35;2.72;;;31.00;99.90;;;;;;1799789;77;21243;-83
2022/05/10 09:56:37;;;;;;;6.22;3.22;;;31.00;99.90;;;;;;1800221;77;21153;-84
2022/05/10 09:59:10;;;;;;;9.15;6.03;;;30.80;99.90;;;;;;1811595;77;21152;-84
2022/05/10 10:01:45;;;;;;;7.97;3.40;;;30.80;99.90;;;;;;1791131;76;21550;-83
2022/05/10 10:04:17;;;;;;;8.93;4.92;;;30.80;99.90;;;;;;1838631;76;21148;-83
2022/05/10 10:06:51;;;;;;;5.20;3.27;;;30.80;99.90;;;;;;1832370;76;21691;-84
2022/05/10 10:09:24;;;;;;;3.80;3.22;;;30.80;99.90;;;;;;1822330;77;21514;-83
2022/05/10 10:11:55;;;;;;;8.30;3.60;;;30.90;99.90;;;;;;1828730;76;21144;-84
2022/05/10 10:14:28;;;;;;;5.83;3.58;;;30.80;99.90;;;;;;1831382;76;21943;-84
2022/05/10 10:17:02;;;;;;;5.70;3.42;;;30.80;99.90;;;;;;1840526;75;21283;-83
2022/05/10 10:19:38;;;;;;;7.03;3.27;;;30.70;99.90;;;;;;1863954;76;21220;-83
2022/05/10 10:22:10;;;;;;;8.85;4.40;;;30.80;99.90;;;;;;1849340;76;21147;-83
2022/05/10 10:24:43;;;;;;;11.85;4.72;;;30.60;99.90;;;;;;1833936;77;21238;-83
2022/05/10 10:27:18;;;;;;;9.03;4.40;;;30.60;99.90;;;;;;1808560;77;21194;-83
2022/05/10 10:29:51;;;;;;;7.40;4.70;;;30.70;99.90;;;;;;1820880;77;21274;-83
2022/05/10 10:32:25;;;;;;;7.25;4.58;;;30.50;99.90;;;;;;1823506;76;21104;-81
2022/05/10 10:34:59;;;;;;;9.28;5.60;;;30.50;99.90;;;;;;1832143;77;21142;-82
2022/05/10 10:37:32;;;;;;;8.63;5.83;;;30.60;99.90;;;;;;1836771;76;21843;-84
2022/05/10 10:40:05;;;;;;;10.13;5.40;;;30.50;99.90;;;;;;1810712;77;21685;-83
2022/05/10 10:42:39;;;;;;;10.25;5.45;;;30.40;99.90;;;;;;1782039;78;21605;-83
2022/05/10 10:45:13;;;;;;;10.38;5.83;;;30.40;99.90;;;;;;1796254;78;21162;-82
2022/05/10 10:47:47;;;;;;;9.75;6.00;;;30.30;99.90;;;;;;1844507;76;21167;-84
2022/05/10 10:50:20;;;;;;;10.95;5.25;;;30.10;99.90;;;;;;1849844;76;21232;-82
2022/05/10 10:52:54;;;;;;;7.95;5.53;;;30.10;99.90;;;;;;1810628;77;21268;-82
2022/05/10 10:55:27;;;;;;;13.05;6.40;;;30.10;99.90;;;;;;1795855;78;21107;-83
2022/05/10 10:58:04;;;;;;;8.78;5.75;;;30.10;99.90;;;;;;1789608;78;21103;-83
2022/05/10 11:00:37;;;;;;;12.00;5.80;;;30.20;99.90;;;;;;1769933;78;21599;-83
2022/05/10 11:03:09;;;;;;;11.97;7.05;;;30.10;99.90;;;;;;1850061;76;21176;-81
2022/05/10 11:05:42;;;;;;;17.95;8.45;;;30.10;99.90;;;;;;1822125;77;21184;-82
2022/05/10 11:08:17;;;;;;;14.35;8.93;;;30.10;99.90;;;;;;1853005;76;21144;-84
2022/05/10 11:10:50;;;;;;;14.60;7.45;;;30.00;99.90;;;;;;1838043;77;21130;-82
2022/05/10 11:13:23;;;;;;;11.25;7.17;;;30.00;99.90;;;;;;1810147;77;21201;-82
2022/05/10 11:15:56;;;;;;;12.93;6.87;;;30.10;99.90;;;;;;1812533;78;21709;-81
2022/05/10 11:18:29;;;;;;;18.75;7.00;;;30.00;99.90;;;;;;1829831;75;21633;-83
2022/05/10 11:21:02;;;;;;;9.25;6.08;;;29.90;99.90;;;;;;1856459;75;21196;-83
2022/05/10 11:23:54;;;;;;;11.93;6.08;;;29.90;99.90;;;;;;1887442;76;21557;-83
2022/05/10 11:26:25;;;;;;;19.70;9.98;;;29.80;99.90;;;;;;1827822;76;21535;-84
2022/05/10 11:29:02;;;;;;;18.82;11.93;;;29.90;99.90;;;;;;1827311;76;21237;-83
2022/05/10 11:31:34;;;;;;;15.93;9.33;;;29.80;99.90;;;;;;1834448;76;21142;-84
2022/05/10 11:34:06;;;;;;;11.70;6.87;;;29.80;99.90;;;;;;1803944;77;21102;-82
2022/05/10 11:36:39;;;;;;;13.80;7.67;;;29.80;99.90;;;;;;1797878;78;21163;-82
2022/05/10 11:39:13;;;;;;;15.55;7.85;;;29.90;99.90;;;;;;1843516;76;21662;-84
2022/05/10 11:41:44;;;;;;;10.98;7.83;;;29.80;99.90;;;;;;1855353;75;21167;-84
2022/05/10 11:44:19;;;;;;;16.90;8.95;;;29.70;99.90;;;;;;1811455;76;21147;-82
2022/05/10 11:46:52;;;;;;;18.92;8.23;;;29.70;99.90;;;;;;1813713;77;21133;-81
2022/05/10 11:49:24;;;;;;;16.93;9.23;;;29.70;99.90;;;;;;1823585;76;21321;-82
2022/05/10 11:51:56;;;;;;;15.85;9.05;;;29.70;99.90;;;;;;1839026;77;21137;-83
2022/05/10 11:54:28;;;;;;;17.77;9.68;;;29.70;99.90;;;;;;1857705;76;21183;-83
2022/05/10 11:57:01;;;;;;;14.78;10.03;;;29.80;99.90;;;;;;1859145;75;21341;-83
2022/05/10 11:59:36;;;;;;;15.55;9.35;;;29.70;99.90;;;;;;1827338;77;21234;-83
2022/05/10 12:02:09;;;;;;;15.58;9.43;;;29.70;99.90;;;;;;1800676;78;21630;-83
2022/05/10 12:04:43;;;;;;;12.45;9.00;;;29.60;99.90;;;;;;1809630;77;21362;-83
2022/05/10 12:07:16;;;;;;;16.93;9.68;;;29.50;99.90;;;;;;1761789;80;21323;-84
2022/05/10 12:09:49;;;;;;;14.80;9.75;;;29.60;99.90;;;;;;1812247;76;21344;-84
2022/05/10 12:12:25;;;;;;;19.62;11.55;;;29.50;99.90;;;;;;1763970;78;21266;-82
2022/05/10 12:22:46;;;;;;;17.00;9.05;;;29.40;99.90;;;;;;1817785;77;21142;-82
2022/05/10 12:25:23;;;;;;;14.40;10.00;;;29.40;99.90;;;;;;1816285;77;21134;-82
2022/05/10 12:27:56;;;;;;;15.32;10.40;;;29.40;99.90;;;;;;1822671;75;21147;-82
2022/05/10 12:30:30;;;;;;;13.88;10.25;;;29.30;99.90;;;;;;1827815;76;21242;-82
2022/05/10 12:33:03;;;;;;;11.88;9.13;;;29.30;99.90;;;;;;1841484;76;21133;-82
2022/05/10 12:35:38;;;;;;;15.25;10.82;;;29.40;99.90;;;;;;1804179;77;21588;-82
2022/05/10 12:38:11;;;;;;;14.35;9.90;;;29.30;99.90;;;;;;1823886;76;21152;-82
2022/05/10 12:40:41;;;;;;;21.00;10.38;;;29.50;99.90;;;;;;1839571;76;21199;-83
2022/05/10 12:43:17;;;;;;;16.25;10.48;;;29.30;99.90;;;;;;1841255;76;21192;-82
2022/05/10 12:45:55;;;;;;;17.35;11.28;;;29.30;99.90;;;;;;1833272;76;22106;-82
2022/05/10 12:48:24;;;;;;;15.98;11.12;;;29.30;99.90;;;;;;1853767;76;21284;-82
2022/05/10 12:51:08;;;;;;;17.62;11.28;;;29.30;99.90;;;;;;1841473;75;21206;-82
2022/05/10 12:53:39;;;;;;;16.75;10.60;;;29.30;99.90;;;;;;1829885;76;21208;-81
2022/05/10 12:56:14;;;;;;;16.48;11.03;;;29.30;99.90;;;;;;1834325;76;21723;-82
2022/05/10 12:58:48;;;;;;;18.57;10.58;;;29.30;99.90;;;;;;1832990;75;21309;-82
2022/05/10 13:01:20;;;;;;;15.78;10.82;;;29.40;99.90;;;;;;1835135;75;21211;-82
2022/05/10 13:03:54;;;;;;;14.58;8.60;;;29.20;99.90;;;;;;1833749;76;21158;-83
2022/05/10 13:06:28;;;;;;;9.20;5.35;;;29.20;99.90;;;;;;1822738;77;21149;-82
2022/05/10 13:09:00;;;;;;;7.80;4.55;;;29.20;99.90;;;;;;1828154;77;21137;-82
2022/05/10 13:11:35;;;;;;;6.95;4.85;;;29.00;99.90;;;;;;1846649;76;21076;-82
2022/05/10 13:14:06;;;;;;;7.35;4.28;;;28.90;99.90;;;;;;1831909;76;21643;-83
2022/05/10 13:16:38;;;;;;;7.75;4.25;;;28.80;99.90;;;;;;1810935;77;21201;-84
2022/05/10 13:19:10;;;;;;;6.35;4.12;;;28.90;99.90;;;;;;1861644;75;21706;-84
2022/05/10 13:21:42;;;;;;;7.55;4.25;;;28.80;99.90;;;;;;1822347;76;21147;-84
2022/05/10 13:24:16;;;;;;;7.45;4.17;;;28.80;99.90;;;;;;1807938;78;21223;-83
2022/05/10 13:26:54;;;;;;;8.15;4.00;;;28.60;99.90;;;;;;1813807;78;21174;-82
2022/05/10 13:29:30;;;;;;;5.80;3.65;;;28.60;99.90;;;;;;1802709;76;21075;-83
2022/05/10 13:32:00;;;;;;;6.62;3.85;;;28.50;99.90;;;;;;1763835;78;21200;-83
2022/05/10 13:34:31;;;;;;;5.42;4.10;;;28.60;99.90;;;;;;1836867;75;21722;-84